sensor_id;sensor_type;location;lat;lon;timestamp;pressure;altitude;pressure_sealevel;temperature;humidity
48942;BME280;35340;52.378;4.648;2022-09-09T00:02:12;100714.34;;;22.72;50.27
48942;BME280;35340;52.378;4.648;2022-09-09T00:04:41;100715.19;;;22.72;50.25
48942;BME280;35340;52.378;4.648;2022-09-09T00:12:47;100715.34;;;22.68;49.99
48942;BME280;35340;52.378;4.648;2022-09-09T00:15:21;100706.53;;;22.70;50.31
48942;BME280;35340;52.378;4.648;2022-09-09T00:17:53;100708.28;;;22.70;50.30
48942;BME280;35340;52.378;4.648;2022-09-09T00:20:33;100707.44;;;22.69;49.98
48942;BME280;35340;52.378;4.648;2022-09-09T00:23:14;100711.00;;;22.67;50.36
48942;BME280;35340;52.378;4.648;2022-09-09T00:28:25;100706.63;;;22.67;50.10
48942;BME280;35340;52.378;4.648;2022-09-09T00:30:52;100712.78;;;22.66;49.88
48942;BME280;35340;52.378;4.648;2022-09-09T00:33:20;100709.25;;;22.67;49.97
48942;BME280;35340;52.378;4.648;2022-09-09T00:35:53;100704.97;;;22.65;50.16
48942;BME280;35340;52.378;4.648;2022-09-09T00:38:34;100718.09;;;22.65;50.26
48942;BME280;35340;52.378;4.648;2022-09-09T00:43:30;100704.00;;;22.67;50.11
48942;BME280;35340;52.378;4.648;2022-09-09T00:49:04;100699.72;;;22.65;50.24
48942;BME280;35340;52.378;4.648;2022-09-09T00:51:39;100701.53;;;22.63;49.92
48942;BME280;35340;52.378;4.648;2022-09-09T01:04:39;100697.09;;;22.65;50.26
48942;BME280;35340;52.378;4.648;2022-09-09T01:12:33;100696.22;;;22.64;50.21
48942;BME280;35340;52.378;4.648;2022-09-09T01:15:09;100698.03;;;22.62;50.34
48942;BME280;35340;52.378;4.648;2022-09-09T01:18:02;100698.91;;;22.63;49.96
48942;BME280;35340;52.378;4.648;2022-09-09T01:20:44;100694.56;;;22.62;50.01
48942;BME280;35340;52.378;4.648;2022-09-09T01:28:29;100686.75;;;22.60;50.13
48942;BME280;35340;52.378;4.648;2022-09-09T01:30:57;100685.88;;;22.59;49.85
48942;BME280;35340;52.378;4.648;2022-09-09T01:33:24;100694.59;;;22.60;50.13
48942;BME280;35340;52.378;4.648;2022-09-09T01:35:57;100692.88;;;22.61;50.01
48942;BME280;35340;52.378;4.648;2022-09-09T01:38:29;100687.66;;;22.59;50.35
48942;BME280;35340;52.378;4.648;2022-09-09T01:40:56;100689.47;;;22.57;50.21
48942;BME280;35340;52.378;4.648;2022-09-09T01:43:25;100688.50;;;22.59;50.25
48942;BME280;35340;52.378;4.648;2022-09-09T01:45:53;100682.41;;;22.59;50.00
48942;BME280;35340;52.378;4.648;2022-09-09T01:48:22;100680.69;;;22.58;50.10
48942;BME280;35340;52.378;4.648;2022-09-09T01:50:48;100680.69;;;22.58;50.20
48942;BME280;35340;52.378;4.648;2022-09-09T01:53:17;100679.84;;;22.57;50.02
48942;BME280;35340;52.378;4.648;2022-09-09T01:58:42;100675.50;;;22.56;50.37
48942;BME280;35340;52.378;4.648;2022-09-09T02:03:40;100672.88;;;22.56;50.29
48942;BME280;35340;52.378;4.648;2022-09-09T02:08:54;100673.75;;;22.57;50.25
48942;BME280;35340;52.378;4.648;2022-09-09T02:11:25;100670.31;;;22.55;50.19
48942;BME280;35340;52.378;4.648;2022-09-09T02:13:55;100670.31;;;22.55;50.42
48942;BME280;35340;52.378;4.648;2022-09-09T02:16:43;100671.22;;;22.54;50.31
48942;BME280;35340;52.378;4.648;2022-09-09T02:21:41;100661.56;;;22.56;50.11
48942;BME280;35340;52.378;4.648;2022-09-09T02:24:08;100668.50;;;22.57;50.18
48942;BME280;35340;52.378;4.648;2022-09-09T02:26:40;100670.19;;;22.58;50.21
48942;BME280;35340;52.378;4.648;2022-09-09T02:31:41;100663.38;;;22.54;50.42
48942;BME280;35340;52.378;4.648;2022-09-09T02:34:10;100657.19;;;22.55;50.23
48942;BME280;35340;52.378;4.648;2022-09-09T02:36:37;100655.44;;;22.55;50.51
48942;BME280;35340;52.378;4.648;2022-09-09T02:39:05;100654.63;;;22.53;50.28
48942;BME280;35340;52.378;4.648;2022-09-09T02:41:35;100648.53;;;22.53;50.12
48942;BME280;35340;52.378;4.648;2022-09-09T02:44:01;100647.69;;;22.52;50.41
48942;BME280;35340;52.378;4.648;2022-09-09T02:46:54;100648.53;;;22.53;50.19
48942;BME280;35340;52.378;4.648;2022-09-09T02:57:58;100645.41;;;22.42;50.34
48942;BME280;35340;52.378;4.648;2022-09-09T03:00:27;100640.03;;;22.45;50.26
48942;BME280;35340;52.378;4.648;2022-09-09T03:02:53;100649.53;;;22.49;50.43
48942;BME280;35340;52.378;4.648;2022-09-09T03:05:20;100635.63;;;22.47;50.30
48942;BME280;35340;52.378;4.648;2022-09-09T03:07:46;100637.44;;;22.45;50.47
48942;BME280;35340;52.378;4.648;2022-09-09T03:10:12;100640.94;;;22.45;50.01
48942;BME280;35340;52.378;4.648;2022-09-09T03:12:37;100636.56;;;22.44;50.31
48942;BME280;35340;52.378;4.648;2022-09-09T03:15:04;100633.16;;;22.42;50.14
48942;BME280;35340;52.378;4.648;2022-09-09T03:17:29;100637.56;;;22.40;50.28
48942;BME280;35340;52.378;4.648;2022-09-09T03:19:55;100638.44;;;22.41;50.35
48942;BME280;35340;52.378;4.648;2022-09-09T03:22:21;100634.06;;;22.41;50.20
48942;BME280;35340;52.378;4.648;2022-09-09T03:24:46;100635.81;;;22.41;50.40
48942;BME280;35340;52.378;4.648;2022-09-09T03:27:12;100638.44;;;22.41;50.18
48942;BME280;35340;52.378;4.648;2022-09-09T03:29:38;100639.34;;;22.39;50.12
48942;BME280;35340;52.378;4.648;2022-09-09T03:32:04;100635.91;;;22.37;50.32
48942;BME280;35340;52.378;4.648;2022-09-09T03:34:29;100630.78;;;22.34;50.02
48942;BME280;35340;52.378;4.648;2022-09-09T03:36:55;100620.34;;;22.33;50.63
48942;BME280;35340;52.378;4.648;2022-09-09T03:39:20;100628.06;;;22.37;50.59
48942;BME280;35340;52.378;4.648;2022-09-09T03:41:46;100618.41;;;22.38;50.14
48942;BME280;35340;52.378;4.648;2022-09-09T03:44:13;100621.03;;;22.38;50.07
48942;BME280;35340;52.378;4.648;2022-09-09T03:46:38;100629.03;;;22.35;50.15
48942;BME280;35340;52.378;4.648;2022-09-09T03:49:04;100610.75;;;22.32;50.30
48942;BME280;35340;52.378;4.648;2022-09-09T03:51:30;100618.56;;;22.33;50.39
48942;BME280;35340;52.378;4.648;2022-09-09T03:54:05;100621.03;;;22.38;50.36
48942;BME280;35340;52.378;4.648;2022-09-09T03:56:33;100615.09;;;22.33;50.12
48942;BME280;35340;52.378;4.648;2022-09-09T03:58:59;100619.38;;;22.35;49.98
48942;BME280;35340;52.378;4.648;2022-09-09T04:01:24;100613.34;;;22.33;50.45
48942;BME280;35340;52.378;4.648;2022-09-09T04:03:50;100618.63;;;22.32;50.11
48942;BME280;35340;52.378;4.648;2022-09-09T04:06:16;100624.75;;;22.32;50.09
48942;BME280;35340;52.378;4.648;2022-09-09T04:08:43;100613.34;;;22.33;50.20
48942;BME280;35340;52.378;4.648;2022-09-09T04:13:41;100607.25;;;22.33;50.27
48942;BME280;35340;52.378;4.648;2022-09-09T04:16:09;100606.38;;;22.32;50.04
48942;BME280;35340;52.378;4.648;2022-09-09T04:18:35;100606.28;;;22.35;49.88
48942;BME280;35340;52.378;4.648;2022-09-09T04:21:01;100609.75;;;22.36;50.07
48942;BME280;35340;52.378;4.648;2022-09-09T04:23:28;100605.38;;;22.36;49.92
48942;BME280;35340;52.378;4.648;2022-09-09T04:25:58;100599.25;;;22.36;49.94
48942;BME280;35340;52.378;4.648;2022-09-09T04:28:25;100596.75;;;22.33;50.02
48942;BME280;35340;52.378;4.648;2022-09-09T04:30:51;100597.59;;;22.33;49.82
48942;BME280;35340;52.378;4.648;2022-09-09T04:33:17;100596.88;;;22.30;49.70
48942;BME280;35340;52.378;4.648;2022-09-09T04:35:48;100598.72;;;22.26;50.10
48942;BME280;35340;52.378;4.648;2022-09-09T04:40:38;100594.25;;;22.30;49.92
48942;BME280;35340;52.378;4.648;2022-09-09T04:43:08;100594.16;;;22.31;49.79
48942;BME280;35340;52.378;4.648;2022-09-09T04:45:34;100597.88;;;22.26;49.92
48942;BME280;35340;52.378;4.648;2022-09-09T04:47:59;100596.09;;;22.26;50.16
48942;BME280;35340;52.378;4.648;2022-09-09T04:50:25;100594.16;;;22.31;50.13
48942;BME280;35340;52.378;4.648;2022-09-09T04:52:50;100592.94;;;22.43;50.08
48942;BME280;35340;52.378;4.648;2022-09-09T04:55:16;100592.66;;;22.51;49.64
48942;BME280;35340;52.378;4.648;2022-09-09T04:57:47;100586.41;;;22.55;49.82
48942;BME280;35340;52.378;4.648;2022-09-09T05:02:41;100575.78;;;22.58;49.65
48942;BME280;35340;52.378;4.648;2022-09-09T05:05:07;100574.03;;;22.58;49.60
48942;BME280;35340;52.378;4.648;2022-09-09T05:07:33;100576.66;;;22.58;49.66
48942;BME280;35340;52.378;4.648;2022-09-09T05:09:58;100579.22;;;22.60;49.54
48942;BME280;35340;52.378;4.648;2022-09-09T05:12:25;100577.50;;;22.59;49.63
48942;BME280;35340;52.378;4.648;2022-09-09T05:14:51;100580.09;;;22.61;49.67
48942;BME280;35340;52.378;4.648;2022-09-09T05:17:17;100579.16;;;22.62;49.53
48942;BME280;35340;52.378;4.648;2022-09-09T05:19:43;100575.75;;;22.59;49.64
48942;BME280;35340;52.378;4.648;2022-09-09T05:22:09;100575.69;;;22.61;49.78
48942;BME280;35340;52.378;4.648;2022-09-09T05:24:37;100575.69;;;22.61;49.69
48942;BME280;35340;52.378;4.648;2022-09-09T05:27:03;100572.16;;;22.62;49.63
48942;BME280;35340;52.378;4.648;2022-09-09T05:29:30;100570.41;;;22.63;49.38
48942;BME280;35340;52.378;4.648;2022-09-09T05:31:59;100573.88;;;22.63;49.53
48942;BME280;35340;52.378;4.648;2022-09-09T05:34:24;100572.94;;;22.64;49.44
48942;BME280;35340;52.378;4.648;2022-09-09T05:36:49;100579.09;;;22.65;49.71
48942;BME280;35340;52.378;4.648;2022-09-09T05:39:16;100577.31;;;22.65;49.25
48942;BME280;35340;52.378;4.648;2022-09-09T05:41:41;100582.56;;;22.65;49.72
48942;BME280;35340;52.378;4.648;2022-09-09T05:44:07;100584.25;;;22.66;49.60
48942;BME280;35340;52.378;4.648;2022-09-09T05:46:32;100578.16;;;22.66;49.49
48942;BME280;35340;52.378;4.648;2022-09-09T05:48:58;100578.16;;;22.66;49.30
48942;BME280;35340;52.378;4.648;2022-09-09T05:51:27;100572.22;;;22.61;49.48
48942;BME280;35340;52.378;4.648;2022-09-09T05:53:56;100576.81;;;22.54;49.24
48942;BME280;35340;52.378;4.648;2022-09-09T05:56:25;100573.41;;;22.52;49.24
48942;BME280;35340;52.378;4.648;2022-09-09T05:58:52;100567.22;;;22.53;49.36
48942;BME280;35340;52.378;4.648;2022-09-09T06:03:52;100560.22;;;22.53;49.11
48942;BME280;35340;52.378;4.648;2022-09-09T06:08:44;100578.41;;;22.58;49.34
48942;BME280;35340;52.378;4.648;2022-09-09T06:13:39;100578.03;;;22.44;48.95
48942;BME280;35340;52.378;4.648;2022-09-09T06:16:08;100581.84;;;22.35;48.83
48942;BME280;35340;52.378;4.648;2022-09-09T06:18:34;100587.38;;;22.26;48.85
48942;BME280;35340;52.378;4.648;2022-09-09T06:21:01;100590.25;;;22.16;48.98
48942;BME280;35340;52.378;4.648;2022-09-09T06:23:28;100594.78;;;22.11;49.15
48942;BME280;35340;52.378;4.648;2022-09-09T06:26:09;100594.25;;;22.02;49.53
48942;BME280;35340;52.378;4.648;2022-09-09T06:28:35;100595.06;;;22.04;49.50
48942;BME280;35340;52.378;4.648;2022-09-09T06:31:04;100590.41;;;22.12;49.10
48942;BME280;35340;52.378;4.648;2022-09-09T06:33:35;100588.06;;;22.04;49.14
48942;BME280;35340;52.378;4.648;2022-09-09T06:36:02;100591.41;;;22.08;49.61
48942;BME280;35340;52.378;4.648;2022-09-09T06:38:29;100588.75;;;22.09;49.36
48942;BME280;35340;52.378;4.648;2022-09-09T06:40:55;100586.28;;;22.05;49.37
48942;BME280;35340;52.378;4.648;2022-09-09T06:43:25;100590.72;;;22.03;49.32
48942;BME280;35340;52.378;4.648;2022-09-09T06:46:02;100593.31;;;22.03;49.50
48942;BME280;35340;52.378;4.648;2022-09-09T06:48:28;100589.06;;;22.00;49.50
48942;BME280;35340;52.378;4.648;2022-09-09T06:51:02;100599.03;;;21.89;49.68
48942;BME280;35340;52.378;4.648;2022-09-09T06:53:27;100593.72;;;21.90;50.00
48942;BME280;35340;52.378;4.648;2022-09-09T06:55:53;100597.13;;;21.92;49.82
48942;BME280;35340;52.378;4.648;2022-09-09T06:58:22;100597.25;;;21.89;49.55
48942;BME280;35340;52.378;4.648;2022-09-09T07:03:42;100596.59;;;21.83;50.01
48942;BME280;35340;52.378;4.648;2022-09-09T07:08:39;100589.69;;;21.80;50.14
48942;BME280;35340;52.378;4.648;2022-09-09T07:11:07;100591.56;;;21.75;50.45
48942;BME280;35340;52.378;4.648;2022-09-09T07:13:34;100583.72;;;21.75;50.58
48942;BME280;35340;52.378;4.648;2022-09-09T07:16:05;100591.72;;;21.70;50.51
48942;BME280;35340;52.378;4.648;2022-09-09T07:18:31;100585.47;;;21.74;50.76
48942;BME280;35340;52.378;4.648;2022-09-09T07:20:56;100591.41;;;21.80;50.54
48942;BME280;35340;52.378;4.648;2022-09-09T07:23:22;100600.09;;;21.82;50.61
48942;BME280;35340;52.378;4.648;2022-09-09T07:25:48;100586.09;;;21.83;50.41
48942;BME280;35340;52.378;4.648;2022-09-09T07:30:39;100576.63;;;21.78;50.57
48942;BME280;35340;52.378;4.648;2022-09-09T07:33:05;100580.91;;;21.81;50.82
48942;BME280;35340;52.378;4.648;2022-09-09T08:09:07;100587.38;;;21.97;50.39
48942;BME280;35340;52.378;4.648;2022-09-09T09:28:41;100603.31;;;22.18;49.70
48942;BME280;35340;52.378;4.648;2022-09-09T11:04:40;100586.28;;;22.58;50.52
48942;BME280;35340;52.378;4.648;2022-09-09T11:12:19;100585.44;;;22.57;50.71
48942;BME280;35340;52.378;4.648;2022-09-09T15:32:55;100621.28;;;22.57;52.73
48942;BME280;35340;52.378;4.648;2022-09-09T15:35:23;100613.53;;;22.54;52.74
48942;BME280;35340;52.378;4.648;2022-09-09T15:50:45;100622.50;;;22.47;52.82
48942;BME280;35340;52.378;4.648;2022-09-09T15:53:10;100620.75;;;22.47;52.86
48942;BME280;35340;52.378;4.648;2022-09-09T15:55:36;100620.69;;;22.49;52.46
48942;BME280;35340;52.378;4.648;2022-09-09T15:58:01;100624.13;;;22.51;52.96
48942;BME280;35340;52.378;4.648;2022-09-09T16:00:27;100638.00;;;22.54;52.72
48942;BME280;35340;52.378;4.648;2022-09-09T16:02:54;100633.47;;;22.58;52.61
48942;BME280;35340;52.378;4.648;2022-09-09T16:05:19;100636.91;;;22.60;52.54
48942;BME280;35340;52.378;4.648;2022-09-09T16:07:45;100636.03;;;22.61;52.52
48942;BME280;35340;52.378;4.648;2022-09-09T16:10:12;100637.72;;;22.62;52.48
48942;BME280;35340;52.378;4.648;2022-09-09T16:12:39;100630.72;;;22.63;52.18
48942;BME280;35340;52.378;4.648;2022-09-09T16:15:05;100633.28;;;22.64;52.36
48942;BME280;35340;52.378;4.648;2022-09-09T16:17:30;100628.81;;;22.68;52.36
48942;BME280;35340;52.378;4.648;2022-09-09T16:20:02;100628.81;;;22.68;52.15
48942;BME280;35340;52.378;4.648;2022-09-09T16:22:28;100633.19;;;22.67;52.37
48942;BME280;35340;52.378;4.648;2022-09-09T16:24:53;100635.75;;;22.69;52.28
48942;BME280;35340;52.378;4.648;2022-09-09T16:27:19;100634.00;;;22.69;52.45
48942;BME280;35340;52.378;4.648;2022-09-09T16:29:44;100632.22;;;22.70;52.28
48942;BME280;35340;52.378;4.648;2022-09-09T16:32:10;100641.78;;;22.71;52.42
48942;BME280;35340;52.378;4.648;2022-09-09T16:34:36;100637.44;;;22.71;52.18
48942;BME280;35340;52.378;4.648;2022-09-09T16:37:02;100643.53;;;22.72;52.44
48942;BME280;35340;52.378;4.648;2022-09-09T16:39:27;100641.75;;;22.72;52.09
48942;BME280;35340;52.378;4.648;2022-09-09T16:41:53;100639.09;;;22.74;52.02
48942;BME280;35340;52.378;4.648;2022-09-09T16:44:19;100640.63;;;22.79;52.33
48942;BME280;35340;52.378;4.648;2022-09-09T16:46:46;100637.84;;;22.84;52.31
48942;BME280;35340;52.378;4.648;2022-09-09T16:51:41;100631.50;;;22.91;52.32
48942;BME280;35340;52.378;4.648;2022-09-09T16:54:09;100633.13;;;22.94;52.23
48942;BME280;35340;52.378;4.648;2022-09-09T16:56:37;100632.28;;;22.93;51.78
48942;BME280;35340;52.378;4.648;2022-09-09T16:59:05;100636.56;;;22.96;52.23
48942;BME280;35340;52.378;4.648;2022-09-09T17:01:43;100633.19;;;22.92;52.50
48942;BME280;35340;52.378;4.648;2022-09-09T17:04:13;100644.59;;;22.91;52.10
48942;BME280;35340;52.378;4.648;2022-09-09T17:06:39;100647.31;;;22.88;52.22
48942;BME280;35340;52.378;4.648;2022-09-09T17:09:09;100654.38;;;22.86;52.46
48942;BME280;35340;52.378;4.648;2022-09-09T17:11:36;100651.84;;;22.85;52.64
48942;BME280;35340;52.378;4.648;2022-09-09T17:14:02;100661.53;;;22.83;52.88
48942;BME280;35340;52.378;4.648;2022-09-09T17:16:30;100665.03;;;22.82;52.65
48942;BME280;35340;52.378;4.648;2022-09-09T17:18:57;100671.22;;;22.80;52.82
48942;BME280;35340;52.378;4.648;2022-09-09T17:21:25;100671.22;;;22.80;52.93
48942;BME280;35340;52.378;4.648;2022-09-09T17:23:55;100672.06;;;22.81;53.10
48942;BME280;35340;52.378;4.648;2022-09-09T17:26:22;100673.03;;;22.78;53.15
48942;BME280;35340;52.378;4.648;2022-09-09T17:28:48;100670.44;;;22.77;53.15
48942;BME280;35340;52.378;4.648;2022-09-09T17:33:47;100676.66;;;22.74;53.23
48942;BME280;35340;52.378;4.648;2022-09-09T17:38:39;100673.19;;;22.74;53.16
48942;BME280;35340;52.378;4.648;2022-09-09T17:41:08;100677.63;;;22.72;53.04
48942;BME280;35340;52.378;4.648;2022-09-09T17:43:34;100683.75;;;22.71;53.36
48942;BME280;35340;52.378;4.648;2022-09-09T17:48:35;100685.56;;;22.69;53.38
48942;BME280;35340;52.378;4.648;2022-09-09T17:51:09;100682.97;;;22.69;53.27
48942;BME280;35340;52.378;4.648;2022-09-09T17:53:39;100689.81;;;22.73;53.66
48942;BME280;35340;52.378;4.648;2022-09-09T17:56:06;100690.75;;;22.72;53.72
48942;BME280;35340;52.378;4.648;2022-09-09T17:58:33;100693.31;;;22.73;53.62
48942;BME280;35340;52.378;4.648;2022-09-09T18:01:09;100698.63;;;22.72;53.50
48942;BME280;35340;52.378;4.648;2022-09-09T18:03:37;100695.06;;;22.73;53.58
48942;BME280;35340;52.378;4.648;2022-09-09T18:06:06;100698.63;;;22.72;53.57
48942;BME280;35340;52.378;4.648;2022-09-09T18:08:32;100690.78;;;22.70;53.79
48942;BME280;35340;52.378;4.648;2022-09-09T18:10:59;100696.03;;;22.70;54.14
48942;BME280;35340;52.378;4.648;2022-09-09T18:13:26;100693.41;;;22.70;54.46
48942;BME280;35340;52.378;4.648;2022-09-09T18:15:51;100695.19;;;22.70;54.39
48942;BME280;35340;52.378;4.648;2022-09-09T18:18:16;100703.94;;;22.69;54.21
48942;BME280;35340;52.378;4.648;2022-09-09T18:20:42;100704.00;;;22.67;54.54
48942;BME280;35340;52.378;4.648;2022-09-09T18:23:08;100705.75;;;22.67;54.51
48942;BME280;35340;52.378;4.648;2022-09-09T18:25:38;100715.41;;;22.66;54.29
48942;BME280;35340;52.378;4.648;2022-09-09T18:28:04;100720.72;;;22.65;54.55
48942;BME280;35340;52.378;4.648;2022-09-09T18:30:29;100724.22;;;22.64;54.71
48942;BME280;35340;52.378;4.648;2022-09-09T18:32:57;100723.38;;;22.63;54.66
48942;BME280;35340;52.378;4.648;2022-09-09T18:35:28;100727.78;;;22.63;54.81
48942;BME280;35340;52.378;4.648;2022-09-09T18:37:54;100731.56;;;22.54;54.80
48942;BME280;35340;52.378;4.648;2022-09-09T18:40:20;100732.75;;;22.44;55.20
48942;BME280;35340;52.378;4.648;2022-09-09T18:42:46;100736.34;;;22.39;55.32
48942;BME280;35340;52.378;4.648;2022-09-09T18:45:11;100730.34;;;22.36;54.98
48942;BME280;35340;52.378;4.648;2022-09-09T18:47:36;100734.72;;;22.35;54.70
48942;BME280;35340;52.378;4.648;2022-09-09T18:50:08;100732.94;;;22.37;55.04
48942;BME280;35340;52.378;4.648;2022-09-09T18:52:35;100730.41;;;22.34;55.02
48942;BME280;35340;52.378;4.648;2022-09-09T18:55:00;100738.28;;;22.34;54.72
48942;BME280;35340;52.378;4.648;2022-09-09T18:57:26;100740.00;;;22.34;55.22
48942;BME280;35340;52.378;4.648;2022-09-09T18:59:52;100740.91;;;22.34;55.31
48942;BME280;35340;52.378;4.648;2022-09-09T19:02:19;100740.00;;;22.34;55.26
48942;BME280;35340;52.378;4.648;2022-09-09T19:04:46;100746.19;;;22.33;55.50
48942;BME280;35340;52.378;4.648;2022-09-09T19:07:11;100752.31;;;22.32;55.26
48942;BME280;35340;52.378;4.648;2022-09-09T19:09:36;100759.41;;;22.30;55.50
48942;BME280;35340;52.378;4.648;2022-09-09T19:12:02;100760.31;;;22.27;54.96
48942;BME280;35340;52.378;4.648;2022-09-09T19:14:28;100759.47;;;22.27;55.02
48942;BME280;35340;52.378;4.648;2022-09-09T19:16:54;100757.78;;;22.26;55.17
48942;BME280;35340;52.378;4.648;2022-09-09T19:19:22;100753.38;;;22.26;54.85
48942;BME280;35340;52.378;4.648;2022-09-09T19:21:48;100771.75;;;22.25;55.03
48942;BME280;35340;52.378;4.648;2022-09-09T19:26:42;100766.56;;;22.23;55.04
48942;BME280;35340;52.378;4.648;2022-09-09T19:31:41;100777.84;;;22.25;54.75
48942;BME280;35340;52.378;4.648;2022-09-09T19:34:08;100783.19;;;22.22;54.95
48942;BME280;35340;52.378;4.648;2022-09-09T19:36:34;100781.44;;;22.23;54.87
48942;BME280;35340;52.378;4.648;2022-09-09T19:38:59;100782.28;;;22.23;54.87
48942;BME280;35340;52.378;4.648;2022-09-09T19:41:26;100782.34;;;22.20;54.80
48942;BME280;35340;52.378;4.648;2022-09-09T19:43:55;100781.47;;;22.21;54.77
48942;BME280;35340;52.378;4.648;2022-09-09T19:46:29;100780.66;;;22.19;54.67
48942;BME280;35340;52.378;4.648;2022-09-09T19:48:55;100784.94;;;22.22;54.71
48942;BME280;35340;52.378;4.648;2022-09-09T19:51:22;100782.38;;;22.18;54.32
48942;BME280;35340;52.378;4.648;2022-09-09T19:53:57;100776.25;;;22.19;54.66
48942;BME280;35340;52.378;4.648;2022-09-09T19:56:25;100775.34;;;22.21;54.46
48942;BME280;35340;52.378;4.648;2022-09-09T19:58:53;100779.69;;;22.22;54.47
48942;BME280;35340;52.378;4.648;2022-09-09T20:01:24;100781.50;;;22.19;54.58
48942;BME280;35340;52.378;4.648;2022-09-09T20:03:51;100787.69;;;22.17;54.69
48942;BME280;35340;52.378;4.648;2022-09-09T20:06:20;100799.00;;;22.19;54.46
48942;BME280;35340;52.378;4.648;2022-09-09T20:08:48;100794.66;;;22.18;54.67
48942;BME280;35340;52.378;4.648;2022-09-09T20:13:39;100803.50;;;22.14;54.64
48942;BME280;35340;52.378;4.648;2022-09-09T20:18:41;100805.31;;;22.12;54.71
48942;BME280;35340;52.378;4.648;2022-09-09T20:21:11;100808.75;;;22.14;54.46
48942;BME280;35340;52.378;4.648;2022-09-09T20:23:37;100810.63;;;22.10;54.48
48942;BME280;35340;52.378;4.648;2022-09-09T20:26:07;100813.94;;;22.15;54.20
48942;BME280;35340;52.378;4.648;2022-09-09T20:28:34;100814.66;;;22.21;54.48
48942;BME280;35340;52.378;4.648;2022-09-09T20:31:04;100811.72;;;22.33;54.14
48942;BME280;35340;52.378;4.648;2022-09-09T20:33:31;100807.28;;;22.35;54.08
48942;BME280;35340;52.378;4.648;2022-09-09T20:35:56;100811.59;;;22.37;53.83
48942;BME280;35340;52.378;4.648;2022-09-09T20:38:24;100808.06;;;22.38;54.08
48942;BME280;35340;52.378;4.648;2022-09-09T20:40:49;100808.91;;;22.39;53.64
48942;BME280;35340;52.378;4.648;2022-09-09T20:43:15;100820.25;;;22.39;53.77
48942;BME280;35340;52.378;4.648;2022-09-09T20:45:40;100818.50;;;22.40;53.86
48942;BME280;35340;52.378;4.648;2022-09-09T20:48:08;100819.34;;;22.41;53.74
48942;BME280;35340;52.378;4.648;2022-09-09T20:50:34;100815.81;;;22.42;53.97
48942;BME280;35340;52.378;4.648;2022-09-09T20:53:01;100817.53;;;22.43;53.69
48942;BME280;35340;52.378;4.648;2022-09-09T20:55:29;100825.41;;;22.43;53.92
48942;BME280;35340;52.378;4.648;2022-09-09T20:57:55;100823.66;;;22.43;53.38
48942;BME280;35340;52.378;4.648;2022-09-09T21:00:22;100808.78;;;22.44;53.86
48942;BME280;35340;52.378;4.648;2022-09-09T21:02:48;100807.00;;;22.44;53.71
48942;BME280;35340;52.378;4.648;2022-09-09T21:07:40;100807.00;;;22.44;53.74
48942;BME280;35340;52.378;4.648;2022-09-09T21:10:06;100800.00;;;22.45;53.79
48942;BME280;35340;52.378;4.648;2022-09-09T21:12:32;100793.91;;;22.44;53.97
48942;BME280;35340;52.378;4.648;2022-09-09T21:14:57;100803.50;;;22.45;53.96
48942;BME280;35340;52.378;4.648;2022-09-09T21:17:22;100801.75;;;22.44;53.67
48942;BME280;35340;52.378;4.648;2022-09-09T21:19:48;100807.84;;;22.45;53.68
48942;BME280;35340;52.378;4.648;2022-09-09T22:14:04;100831.22;;;22.54;53.27
48942;BME280;35340;52.378;4.648;2022-09-09T22:16:30;100829.47;;;22.53;53.64
48942;BME280;35340;52.378;4.648;2022-09-09T23:00:19;100814.69;;;22.50;53.20
48942;BME280;35340;52.378;4.648;2022-09-09T23:02:44;100813.84;;;22.50;52.88
48942;BME280;35340;52.378;4.648;2022-09-09T23:05:13;100819.94;;;22.50;53.07
48942;BME280;35340;52.378;4.648;2022-09-09T23:07:39;100816.47;;;22.50;53.08
48942;BME280;35340;52.378;4.648;2022-09-09T23:10:05;100811.22;;;22.50;53.01
48942;BME280;35340;52.378;4.648;2022-09-09T23:12:31;100810.34;;;22.49;53.11
